Terminal Aerodrome Forecast
Issued by NWS La Crosse, WI

Home | Current Version | Previous Version | Text Only | Print | Product List | Glossary On
Versions: 1 2 3 4 5 6 7 8 9 10 11 12 13 14 15 16 17 18 19 20 21 22 23 24 25 26
000
FTUS43 KARX 010310 AAA
TAFRST
TAF AMD
KRST 010310Z 0103/0124 06006KT P6SM OVC040
     FM010900 03005KT 4SM BR OVC020
     FM011200 02006KT 3SM BR OVC008
     FM011400 05007KT P6SM OVC008
     FM011700 05008KT P6SM OVC015=

USA.gov is the U.S. government's official web portal to all federal, state and local government web resources and services.